Vanquish — PHCU — position and weather

sailwx.info

Track history (hours):
 
Tides and Currents Weather Stations Pressure Air Temp Water Temp Dewpoint Dewpoint Depression Visibility Wind Speed Wind Dir Waves Ship Positions

Vanquish

Last reported at 2014-Oct-31 04:32 UTC. Time now 2014-Oct-31 04:54 UTC.
Position N 51°30' W 002°42'.

MMSI: 246138952.

Date/timePositionNaut miles runAvg speedWind from/ knotsBaromVisibWave heightAir tempDewpointWater temp
2014-Oct-31 04:32N 51°30' W 002°42'0 0.0
2014-Oct-31 03:32N 51°30' W 002°42'0 0.0
2014-Oct-31 02:32N 51°30' W 002°42'0 0.0
2014-Oct-31 01:32N 51°30' W 002°42'0 0.0
2014-Oct-31 00:32N 51°30' W 002°42'0 0.2
2014-Oct-30 23:34N 51°30' W 002°42'2 1.8
2014-Oct-30 22:34N 51°30' W 002°45'1414.4
2014-Oct-30 21:33N 51°23' W 003°05'174 9.6
2014-Oct-30 03:33N 53°43' W 005°54'1212.1
2014-Oct-30 02:33N 53°54' W 005°60'1010.0
2014-Oct-30 01:32N 54°03' W 006°09'2 0.3
2014-Oct-29 19:21N 54°04' W 006°12'910.4
2014-Oct-29 18:28N 53°57' W 006°02'18211.3
2014-Oct-29 02:20N 51°21' W 003°26'1215.5
2014-Oct-29 01:33N 51°22' W 003°07'1616.3
2014-Oct-29 00:33N 51°30' W 002°45'1 1.4
2014-Oct-28 23:33N 51°30' W 002°42'0 0.0
2014-Oct-28 22:33N 51°30' W 002°42'0 0.0
2014-Oct-28 21:33N 51°30' W 002°42'0 0.3
2014-Oct-28 20:33N 51°30' W 002°43'1 0.6
2014-Oct-28 19:33N 51°31' W 002°43'1212.0
2014-Oct-28 18:33N 51°26' W 003°01'1313.5
2014-Oct-28 17:33N 51°21' W 003°21'172 9.0
2014-Oct-27 22:24N 53°45' W 005°54'910.7
2014-Oct-27 21:33N 53°54' W 005°59'10 9.8
2014-Oct-27 20:33N 54°02' W 006°08'1 0.0
2014-Oct-25 17:33N 54°02' W 006°06'1110.9
2014-Oct-25 16:33N 53°52' W 005°57'177 9.8
2014-Oct-24 22:33N 51°21' W 003°27'1514.7
2014-Oct-24 21:33N 51°24' W 003°03'1414.0
2014-Oct-24 20:33N 51°30' W 002°43'1 0.7
2014-Oct-24 19:33N 51°30' W 002°42'0 0.0
2014-Oct-24 18:33N 51°30' W 002°42'0 0.0
2014-Oct-24 17:33N 51°30' W 002°42'0 0.0
2014-Oct-24 16:33N 51°30' W 002°42'0 0.0
2014-Oct-24 15:33N 51°30' W 002°42'0 0.0
2014-Oct-24 14:33N 51°30' W 002°42'0 0.0
2014-Oct-24 13:33N 51°30' W 002°42'0 0.0
2014-Oct-24 12:33N 51°30' W 002°42'0 0.0
2014-Oct-24 11:33N 51°30' W 002°42'0 0.0
2014-Oct-24 10:33N 51°30' W 002°42'0 0.0
2014-Oct-24 09:33N 51°30' W 002°42'0 0.0
2014-Oct-24 08:33N 51°30' W 002°42'0 0.0
2014-Oct-24 07:33N 51°30' W 002°42'0 0.0
2014-Oct-24 06:33N 51°30' W 002°42'0 0.0
2014-Oct-24 05:33N 51°30' W 002°42'0 0.0
2014-Oct-24 04:33N 51°30' W 002°42'0 0.0
2014-Oct-24 03:33N 51°30' W 002°42'0 0.0
2014-Oct-24 02:33N 51°30' W 002°42'0 0.0
2014-Oct-24 01:33N 51°30' W 002°42'0 0.0
2014-Oct-24 00:33N 51°30' W 002°42'0 0.0
2014-Oct-23 23:33N 51°30' W 002°42'0 0.0
2014-Oct-23 22:30N 51°30' W 002°42'0 0.0
2014-Oct-23 21:33N 51°30' W 002°42'0 0.0
2014-Oct-23 20:33N 51°30' W 002°42'0 0.3
2014-Oct-23 19:34N 51°30' W 002°43'5 5.0
2014-Oct-23 18:33N 51°29' W 002°50'1312.8
2014-Oct-23 17:33N 51°22' W 003°08'187 8.9
2014-Oct-22 20:33N 53°57' W 006°00'9 9.0
2014-Oct-22 19:33N 54°04' W 006°11'2 0.2
2014-Oct-22 08:12N 54°02' W 006°08'4 6.3
2014-Oct-22 07:33N 53°60' W 006°03'5 5.2
2014-Oct-22 06:33N 53°55' W 005°60'8411.4
2014-Oct-21 23:10N 52°30' W 005°51'711.0
2014-Oct-21 22:33N 52°24' W 005°54'1311.2
2014-Oct-21 21:23N 52°11' W 005°58'106 6.7
2014-Oct-21 05:31N 51°20' W 003°27'9 9.3
2014-Oct-21 04:33N 51°21' W 003°13'  
Track history (hours):
 
Tides and Currents Weather Stations Pressure Air Temp Water Temp Dewpoint Dewpoint Depression Visibility Wind Speed Wind Dir Waves Ship Positions

Vanquish

Last reported at 2014-Oct-31 04:32 UTC. Time now 2014-Oct-31 04:54 UTC.
Position N 51°30' W 002°42'.

MMSI: 246138952.

Date/timePositionNaut miles runAvg speedWind from/ knotsBaromVisibWave heightAir tempDewpointWater temp
2014-Oct-31 04:32N 51°30' W 002°42'0 0.0
2014-Oct-31 03:32N 51°30' W 002°42'0 0.0
2014-Oct-31 02:32N 51°30' W 002°42'0 0.0
2014-Oct-31 01:32N 51°30' W 002°42'0 0.0
2014-Oct-31 00:32N 51°30' W 002°42'0 0.2
2014-Oct-30 23:34N 51°30' W 002°42'2 1.8
2014-Oct-30 22:34N 51°30' W 002°45'1414.4
2014-Oct-30 21:33N 51°23' W 003°05'174 9.6
2014-Oct-30 03:33N 53°43' W 005°54'1212.1
2014-Oct-30 02:33N 53°54' W 005°60'1010.0
2014-Oct-30 01:32N 54°03' W 006°09'2 0.3
2014-Oct-29 19:21N 54°04' W 006°12'910.4
2014-Oct-29 18:28N 53°57' W 006°02'18211.3
2014-Oct-29 02:20N 51°21' W 003°26'1215.5
2014-Oct-29 01:33N 51°22' W 003°07'1616.3
2014-Oct-29 00:33N 51°30' W 002°45'1 1.4
2014-Oct-28 23:33N 51°30' W 002°42'0 0.0
2014-Oct-28 22:33N 51°30' W 002°42'0 0.0
2014-Oct-28 21:33N 51°30' W 002°42'0 0.3
2014-Oct-28 20:33N 51°30' W 002°43'1 0.6
2014-Oct-28 19:33N 51°31' W 002°43'1212.0
2014-Oct-28 18:33N 51°26' W 003°01'1313.5
2014-Oct-28 17:33N 51°21' W 003°21'172 9.0
2014-Oct-27 22:24N 53°45' W 005°54'910.7
2014-Oct-27 21:33N 53°54' W 005°59'10 9.8
2014-Oct-27 20:33N 54°02' W 006°08'1 0.0
2014-Oct-25 17:33N 54°02' W 006°06'1110.9
2014-Oct-25 16:33N 53°52' W 005°57'177 9.8
2014-Oct-24 22:33N 51°21' W 003°27'1514.7
2014-Oct-24 21:33N 51°24' W 003°03'1414.0
2014-Oct-24 20:33N 51°30' W 002°43'1 0.7
2014-Oct-24 19:33N 51°30' W 002°42'0 0.0
2014-Oct-24 18:33N 51°30' W 002°42'0 0.0
2014-Oct-24 17:33N 51°30' W 002°42'0 0.0
2014-Oct-24 16:33N 51°30' W 002°42'0 0.0
2014-Oct-24 15:33N 51°30' W 002°42'0 0.0
2014-Oct-24 14:33N 51°30' W 002°42'0 0.0
2014-Oct-24 13:33N 51°30' W 002°42'0 0.0
2014-Oct-24 12:33N 51°30' W 002°42'0 0.0
2014-Oct-24 11:33N 51°30' W 002°42'0 0.0
2014-Oct-24 10:33N 51°30' W 002°42'0 0.0
2014-Oct-24 09:33N 51°30' W 002°42'0 0.0
2014-Oct-24 08:33N 51°30' W 002°42'0 0.0
2014-Oct-24 07:33N 51°30' W 002°42'0 0.0
2014-Oct-24 06:33N 51°30' W 002°42'0 0.0
2014-Oct-24 05:33N 51°30' W 002°42'0 0.0
2014-Oct-24 04:33N 51°30' W 002°42'0 0.0
2014-Oct-24 03:33N 51°30' W 002°42'0 0.0
2014-Oct-24 02:33N 51°30' W 002°42'0 0.0
2014-Oct-24 01:33N 51°30' W 002°42'0 0.0
2014-Oct-24 00:33N 51°30' W 002°42'0 0.0
2014-Oct-23 23:33N 51°30' W 002°42'0 0.0
2014-Oct-23 22:30N 51°30' W 002°42'0 0.0
2014-Oct-23 21:33N 51°30' W 002°42'0 0.0
2014-Oct-23 20:33N 51°30' W 002°42'0 0.3
2014-Oct-23 19:34N 51°30' W 002°43'5 5.0
2014-Oct-23 18:33N 51°29' W 002°50'1312.8
2014-Oct-23 17:33N 51°22' W 003°08'187 8.9
2014-Oct-22 20:33N 53°57' W 006°00'9 9.0
2014-Oct-22 19:33N 54°04' W 006°11'2 0.2
2014-Oct-22 08:12N 54°02' W 006°08'4 6.3
2014-Oct-22 07:33N 53°60' W 006°03'5 5.2
2014-Oct-22 06:33N 53°55' W 005°60'8411.4
2014-Oct-21 23:10N 52°30' W 005°51'711.0
2014-Oct-21 22:33N 52°24' W 005°54'1311.2
2014-Oct-21 21:23N 52°11' W 005°58'106 6.7
2014-Oct-21 05:31N 51°20' W 003°27'9 9.3
2014-Oct-21 04:33N 51°21' W 003°13'  

Dump ship's entire track history